• Join FlightAware (Why Join?)
  • Login
  • US Flag 
01:46PM EST


 

Airport Tracker/Info


-or-


 

Live Flight TrackerFlight Track Log ✈ ASH3770 ✈ 28-Jun-2013 ✈ KORD - KBDL

Flight Track Log - Related Links

Times and Time Zones

All times are in EDT time to prevent confusion due to time zone crossing. See the ASH3770 flight status page for this flight to view local times or setup timezone preferences in your user account.

Time Position Orientation Groundspeed Altitude Reporting Facility
EDT Latitude Longitude Course Direction KTS MPH feet Rate Location/Type
09:40PM 42.0167 -87.9167 37° Northeast 175 201 2,400  Level Chicago TRACON
09:41PM 42.0667 -87.8667 37° Northeast 245 282 4,200 1,260 Climbing Chicago TRACON
09:42PM 42.1278 -87.8053 37° Northeast 256 295 5,200 1,620 Climbing Chicago Center
09:43PM 42.1864 -87.7442 38° Northeast 266 306 7,900 2,520 Climbing Chicago Center
09:44PM 42.2147 -87.6544 67° East 293 337 10,500 2,400 Climbing Chicago Center
09:45PM 42.2003 -87.5436 100° East 303 349 12,900 2,400 Climbing Chicago Center
09:46PM 42.1739 -87.4025 104° East 322 371 15,500 1,980 Climbing Chicago Center
09:47PM 42.1506 -87.2728 104° East 350 403 17,000 1,680 Climbing Chicago Center
09:49PM 42.1242 -87.1325 104° East 382 440 19,000 1,800 Climbing Chicago Center
09:50PM 42.1147 -86.9875 95° East 390 449 20,800 1,800 Climbing Chicago Center
09:51PM 42.1203 -86.8381 87° East 399 459 22,700 1,860 Climbing Chicago Center
09:52PM 42.1261 -86.6692 87° East 400 460 24,700 1,620 Climbing Chicago Center
09:53PM 42.1308 -86.5158 88° East 408 470 26,100 1,260 Climbing Chicago Center
09:54PM 42.1361 -86.3592 87° East 417 480 27,300 1,080 Climbing Chicago Center
09:55PM 42.1408 -86.1975 88° East 428 493 28,300 960 Climbing Chicago Center
09:56PM 42.1439 -86.0300 89° East 443 510 29,300 1,140 Climbing Chicago Center
09:57PM 42.1417 -85.8442 91° East 444 511 30,700 1,260 Climbing Chicago Center
09:58PM 42.1533 -85.6811 84° East 444 511 32,000 1,200 Climbing Chicago Center
09:59PM 42.1864 -85.5258 74° East 437 503 33,300 1,140 Climbing Chicago Center
10:00PM 42.2203 -85.3722 73° East 432 497 34,400 900 Climbing Chicago Center
10:01PM 42.2297 -85.2097 85° East 442 509 35,200 660 Climbing Chicago Center
10:02PM 42.2314 -85.0458 89° East 441 507 35,800 660 Climbing Chicago Center
10:03PM 42.2358 -84.8472 88° East 443 510 36,600 540 Climbing Chicago Center
10:04PM 42.2483 -84.6822 84° East 443 510 37,000 180 Climbing Chicago Center
10:05PM 42.2600 -84.5117 85° East 456 525 37,000  Level Chicago Center
10:06PM 42.2725 -84.3156 85° East 452 520 37,000  Level Cleveland Center
10:07PM 42.2842 -84.1422 85° East 459 528 37,000  Level Cleveland Center
10:08PM 42.2956 -83.9689 85° East 459 528 37,000  Level Cleveland Center
10:09PM 42.3089 -83.7953 84° East 459 528 37,000  Level Cleveland Center
10:10PM 42.3200 -83.6189 85° East 459 528 37,000  Level Cleveland Center
10:11PM 42.3283 -83.4592 86° East 474 545 37,000  Level Cleveland Center
10:12PM 42.3408 -83.2828 84° East 474 545 37,000  Level Cleveland Center
10:13PM 42.3514 -83.1033 85° East 479 551 37,000  Level Cleveland Center
10:14PM 42.3633 -82.9267 85° East 474 545 37,000  Level Cleveland Center
10:15PM 42.3731 -82.7444 86° East 474 545 37,000  Level Cleveland Center
10:16PM 42.3825 -82.5678 86° East 474 545 37,000  Level Cleveland Center
10:17PM 42.3919 -82.3881 86° East 479 551 37,000  Level Cleveland Center
10:18PM 42.4028 -82.2111 85° East 474 545 37,000  Level Cleveland Center
10:19PM 42.4139 -82.0147 86° East 474 545 37,000  Level Cleveland Center
10:20PM 42.4242 -81.8375 85° East 474 545 37,000  Level Cleveland Center
10:21PM 42.4300 -81.6633 87° East 469 540 37,000  Level Cleveland Center
10:22PM 42.4397 -81.5089 85° East 469 540 37,000  Level Cleveland Center
10:23PM 42.4453 -81.3317 88° East 469 540 37,000  Level Cleveland Center
10:24PM 42.4547 -81.1517 86° East 469 540 37,000  Level Cleveland Center
10:25PM 42.4617 -80.9772 87° East 469 540 37,000  Level Cleveland Center
10:26PM 42.4683 -80.8028 87° East 463 533 37,000  Level Cleveland Center
10:27PM 42.4769 -80.6086 86° East 458 527 37,000  Level Cleveland Center
10:28PM 42.4808 -80.4283 88° East 464 534 37,000  Level Cleveland Center
10:29PM 42.4889 -80.2567 86° East 464 534 37,000  Level Cleveland Center
10:30PM 42.4944 -80.0792 88° East 470 541 37,000  Level Cleveland Center
10:31PM 42.5042 -79.9017 86° East 470 541 37,000  Level Cleveland Center
10:32PM 42.5069 -79.7242 89° East 470 541 37,000  Level Cleveland Center
10:33PM 42.5119 -79.5467 88° East 470 541 37,000  Level Cleveland Center
10:34PM 42.5183 -79.3692 87° East 470 541 37,000  Level Cleveland Center
10:35PM 42.5247 -79.1858 87° East 475 547 37,000  Level Cleveland Center
10:36PM 42.5286 -79.0083 88° East 475 547 37,000  Level Cleveland Center
10:37PM 42.5303 -78.8250 89° East 480 552 37,000  Level Cleveland Center
10:38PM 42.5358 -78.6475 88° East 480 552 37,000  Level Cleveland Center
10:39PM 42.5389 -78.4669 89° East 480 552 37,000  Level Cleveland Center
10:40PM 42.5417 -78.2864 89° East 480 552 37,000  Level Cleveland Center
10:41PM 42.5442 -78.1031 89° East 480 552 37,000  Level Cleveland Center
10:42PM 42.5467 -77.9394 89° East 480 552 37,000 -60 Level Cleveland Center
10:43PM 42.5506 -77.7561 88° East 480 552 36,900 -60 Descending Cleveland Center
10:44PM 42.5522 -77.5758 89° East 480 552 36,900 -540 Level Cleveland Center
10:45PM 42.5536 -77.3894 89° East 485 558 35,900 -720 Descending Cleveland Center
10:47PM 42.5564 -77.0606 89° East 483 556 35,000 -360 Descending Boston Center
10:48PM 42.5575 -76.8775 89° East 483 556 35,000  Level Boston Center
10:49PM 42.5583 -76.6969 90° East 483 556 35,000  Level Boston Center
10:50PM 42.5586 -76.5136 90° East 477 549 35,000 -540 Level Boston Center
10:51PM 42.5464 -76.3297 95° East 482 555 34,000 -1,140 Descending Boston Center
10:52PM 42.5358 -76.1458 94° East 482 555 32,800 -1,200 Descending Boston Center
10:53PM 42.5228 -75.9647 96° East 482 555 31,600 -1,200 Descending Boston Center
10:54PM 42.5075 -75.7806 96° East 482 555 30,400 -1,260 Descending Boston Center
10:55PM 42.4942 -75.5969 96° East 482 555 29,100 -1,440 Descending Boston Center
10:56PM 42.4803 -75.4158 96° East 482 555 27,600 -1,500 Descending Boston Center
10:57PM 42.4681 -75.2381 95° East 482 555 26,100 -1,500 Descending Boston Center
10:58PM 42.4700 -75.0747 89° East 482 555 24,600 -1,500 Descending Boston Center
10:59PM 42.4739 -74.8975 88° East 477 549 23,100 -1,500 Descending Boston Center
11:00PM 42.4775 -74.7258 88° East 465 535 21,600 -1,320 Descending Boston Center
11:01PM 42.4811 -74.5317 88° East 446 513 20,200 -1,080 Descending Boston Center
11:02PM 42.4839 -74.3800 89° East 422 486 19,300 -600 Descending Boston Center
11:03PM 42.4842 -74.2306 90° East 397 457 19,000 -840 Descending Boston Center
11:04PM 42.4867 -74.0675 89° East 397 457 17,700 -1,020 Descending Boston Center
11:05PM 42.4886 -73.9381 89° East 387 445 17,000 -360 Descending Boston Center
11:06PM 42.4422 -73.8103 116° Southeast 351 404 17,000  Level Boston Center
11:07PM 42.3869 -73.7164 129° Southeast 340 391 17,000 -240 Level Boston Center
11:08PM 42.3275 -73.6194 130° Southeast 346 398 16,600 -780 Descending Boston Center
11:09PM 42.2911 -73.5150 115° Southeast 353 406 15,700 -1,140 Descending Boston Center
11:09PM 42.2608 -73.4192 113° Southeast 355 409 14,900 -1,020 Descending Boston Center
11:10PM 42.2264 -73.2953 111° Southeast 357 411 13,900 -960 Descending Boston Center
11:11PM 42.1939 -73.1714 109° East 352 405 13,000 -1,080 Descending Boston Center
11:12PM 42.1592 -73.0564 112° Southeast 338 389 11,800 -1,320 Descending Boston Center
11:13PM 42.1158 -72.9522 119° Southeast 297 342 10,400 -1,500 Descending Boston Center
11:15PM 42.0744 -72.8625 122° Southeast 284 327 8,800 -1,560 Descending Boston Center
11:16PM 42.0561 -72.7700 105° East 279 321 7,300 -1,440 Descending Boston Center
11:17PM 42.1125 -72.6919 46° Northeast 293 337 5,900 -1,200 Descending Boston Center
11:18PM 42.1628 -72.6222 46° Northeast 267 307 5,000 -780 Descending Boston Center
11:19PM 42.1897 -72.5522 63° Northeast 203 234 4,400 -840 Descending Boston Center
11:20PM 42.1586 -72.4989 128° Southeast 184 212 3,400 -780 Descending Boston Center
11:21PM 42.1211 -72.4792 159° South 166 191 2,900 -480 Descending Boston Center
11:22PM 42.0814 -72.4989 200° South 150 173 2,500 -240 Descending Boston Center
11:23PM 42.0522 -72.5408 227° Southwest 155 178 2,500 -180 Level Boston Center
11:24PM 42.0189 -72.5825 223° Southwest 159 183 2,200 -300 Descending Boston Center